Time;durP1;ratioP1;P1;durP2;ratioP2;P2;SDS_P1;SDS_P2;PMS_P1;PMS_P2;Temp;Humidity;BMP_temperature;BMP_pressure;BME280_temperature;BME280_humidity;BME280_pressure;Samples;Min_cycle;Max_cycle;Signal;HPM_P1;HPM_P2
2024/01/31 00:02:15;;;;;;;5.75;2.90;;;;;;;5.86;100.00;102007.44;10467570;28;20048;-81
2024/01/31 00:07:18;;;;;;;6.55;3.22;;;;;;;5.48;100.00;102006.97;10466178;28;20049;-79
2024/01/31 00:12:22;;;;;;;4.90;3.10;;;;;;;5.81;100.00;102010.25;10467521;28;20698;-80
2024/01/31 00:17:25;;;;;;;5.30;2.50;;;;;;;6.06;100.00;102020.06;10458607;28;21003;-79
2024/01/31 00:22:28;;;;;;;6.43;2.83;;;;;;;6.14;100.00;102010.88;10452282;28;20059;-79
2024/01/31 00:27:33;;;;;;;5.63;3.05;;;;;;;6.06;100.00;102010.28;10423899;28;20045;-79
2024/01/31 00:32:36;;;;;;;3.85;2.88;;;;;;;6.08;100.00;102013.75;10431246;28;20075;-79
2024/01/31 00:37:39;;;;;;;7.18;2.80;;;;;;;6.16;100.00;102021.47;10471991;28;20048;-80
2024/01/31 00:42:43;;;;;;;4.78;2.75;;;;;;;5.86;100.00;102021.63;10461796;28;20059;-80
2024/01/31 00:47:46;;;;;;;3.50;2.55;;;;;;;5.98;100.00;102020.34;10449409;28;20082;-81
2024/01/31 00:52:49;;;;;;;3.53;2.47;;;;;;;5.44;100.00;102019.53;10428849;28;20139;-80
2024/01/31 00:57:54;;;;;;;2.47;1.80;;;;;;;5.03;100.00;102016.44;10486427;28;20978;-80
2024/01/31 01:03:00;;;;;;;2.47;1.60;;;;;;;4.84;100.00;102004.59;10463757;28;20135;-80
2024/01/31 01:08:03;;;;;;;4.07;1.77;;;;;;;4.92;100.00;102007.88;10437391;28;20174;-80
2024/01/31 01:13:08;;;;;;;3.15;2.30;;;;;;;4.71;100.00;102008.53;10462340;28;21346;-79
2024/01/31 01:18:11;;;;;;;3.15;2.17;;;;;;;4.97;100.00;102011.28;10452501;28;20059;-80
2024/01/31 01:23:15;;;;;;;6.80;2.85;;;;;;;4.83;100.00;102014.38;10454173;28;20164;-80
2024/01/31 01:28:19;;;;;;;4.80;2.90;;;;;;;4.81;100.00;102008.22;10450571;28;20064;-80
2024/01/31 01:33:22;;;;;;;3.42;2.40;;;;;;;5.00;100.00;102034.31;10459986;28;20044;-79
2024/01/31 01:38:25;;;;;;;5.90;2.50;;;;;;;4.89;100.00;102034.63;10476585;28;20048;-80
2024/01/31 01:43:30;;;;;;;7.18;2.30;;;;;;;4.91;100.00;102048.75;10442738;28;20046;-80
2024/01/31 01:48:33;;;;;;;6.30;2.47;;;;;;;4.95;100.00;102050.41;10446266;28;20049;-79
2024/01/31 01:53:37;;;;;;;2.75;2.20;;;;;;;4.76;100.00;102060.72;10417687;28;20052;-79
2024/01/31 01:58:42;;;;;;;3.28;1.90;;;;;;;4.67;100.00;102053.03;10439833;28;20048;-79
2024/01/31 02:03:46;;;;;;;1.60;1.30;;;;;;;4.61;100.00;102067.41;10471996;28;20041;-79
2024/01/31 02:08:50;;;;;;;3.33;1.00;;;;;;;4.95;100.00;102076.16;10506182;28;21116;-78
2024/01/31 02:13:54;;;;;;;2.50;0.90;;;;;;;4.62;100.00;102086.91;10468699;28;20419;-80
2024/01/31 02:18:57;;;;;;;3.50;0.80;;;;;;;4.79;100.00;102087.25;10434096;28;20165;-79
2024/01/31 02:24:02;;;;;;;2.85;1.10;;;;;;;4.87;100.00;102105.69;10439007;28;20620;-79
2024/01/31 02:29:05;;;;;;;5.93;1.52;;;;;;;4.59;100.00;102108.28;10414441;28;20061;-79
2024/01/31 02:34:08;;;;;;;1.85;1.08;;;;;;;4.83;100.00;102112.91;10442577;28;20054;-79
2024/01/31 02:39:12;;;;;;;1.50;1.05;;;;;;;4.64;100.00;102116.16;10456606;28;20064;-79
2024/01/31 02:44:15;;;;;;;3.10;0.93;;;;;;;4.65;100.00;102117.88;10481281;28;20057;-78
2024/01/31 02:49:18;;;;;;;5.15;1.00;;;;;;;4.79;100.00;102115.69;10461688;28;20040;-79
2024/01/31 02:54:23;;;;;;;2.25;0.90;;;;;;;4.97;100.00;102123.13;10477708;28;20044;-78
2024/01/31 02:59:26;;;;;;;2.35;0.80;;;;;;;4.96;100.00;102115.19;10454181;28;20072;-80
2024/01/31 03:04:29;;;;;;;1.58;0.77;;;;;;;4.66;100.00;102111.63;10440136;28;20049;-79
2024/01/31 03:09:34;;;;;;;3.05;0.70;;;;;;;4.20;100.00;102124.44;10419317;28;20044;-79
2024/01/31 03:14:37;;;;;;;2.58;1.20;;;;;;;5.07;100.00;102089.13;10451086;28;20138;-79
2024/01/31 03:26:04;;;;;;;3.20;0.70;;;;;;;4.32;100.00;102116.13;10422280;28;20037;-79
2024/01/31 03:31:07;;;;;;;4.00;0.90;;;;;;;4.45;100.00;102116.66;10426650;28;20095;-79
2024/01/31 03:36:11;;;;;;;1.63;0.88;;;;;;;4.54;100.00;102119.06;10412089;28;20582;-80
2024/01/31 03:41:16;;;;;;;1.15;0.73;;;;;;;4.54;100.00;102105.75;10444572;28;20089;-80
2024/01/31 03:46:19;;;;;;;3.13;1.20;;;;;;;4.42;100.00;102106.09;10449361;28;20055;-78
2024/01/31 03:51:23;;;;;;;5.80;2.05;;;;;;;4.13;100.00;102107.75;10412386;28;20531;-80
2024/01/31 03:56:27;;;;;;;3.20;1.45;;;;;;;4.36;100.00;102108.91;10440296;28;20158;-79
2024/01/31 04:01:30;;;;;;;1.30;1.15;;;;;;;4.21;100.00;102096.91;10440894;28;20045;-80
2024/01/31 04:06:33;;;;;;;3.65;1.42;;;;;;;4.50;100.00;102109.44;10449424;28;21186;-80
2024/01/31 04:11:38;;;;;;;3.88;1.50;;;;;;;4.35;100.00;102108.03;10433969;28;20044;-79
2024/01/31 04:16:41;;;;;;;2.45;1.38;;;;;;;4.46;100.00;102090.91;10440228;28;20357;-80
2024/01/31 04:21:44;;;;;;;2.65;1.63;;;;;;;4.10;100.00;102104.31;10439936;28;20140;-80
2024/01/31 04:26:48;;;;;;;2.50;1.02;;;;;;;4.54;100.00;102097.75;10447234;28;20508;-78
2024/01/31 04:31:52;;;;;;;2.28;1.38;;;;;;;4.36;100.00;102107.16;10462167;28;20049;-79
2024/01/31 04:36:55;;;;;;;5.28;1.38;;;;;;;4.36;99.34;102120.47;10462053;28;20086;-79
2024/01/31 04:42:01;;;;;;;4.32;1.17;;;;;;;4.53;98.88;102105.81;10444727;28;20044;-78
2024/01/31 04:47:04;;;;;;;1.92;0.98;;;;;;;4.03;98.25;102110.69;10442280;28;20689;-78
2024/01/31 04:52:08;;;;;;;1.95;0.60;;;;;;;4.56;94.06;102109.25;10443228;28;21171;-79
2024/01/31 04:57:12;;;;;;;1.77;0.60;;;;;;;4.34;93.38;102116.09;10470906;28;20076;-78
2024/01/31 05:02:15;;;;;;;0.85;0.50;;;;;;;4.24;90.08;102103.94;10439114;28;20053;-79
2024/01/31 05:07:18;;;;;;;2.72;0.70;;;;;;;4.37;90.39;102108.00;10441818;28;20059;-79
2024/01/31 05:12:22;;;;;;;1.98;0.32;;;;;;;4.31;91.47;102113.50;10449440;28;20041;-79
2024/01/31 05:17:26;;;;;;;0.57;0.57;;;;;;;4.55;90.30;102109.28;10492208;28;20051;-79
2024/01/31 05:22:29;;;;;;;0.98;0.68;;;;;;;4.31;92.21;102119.69;10457610;28;20028;-79
2024/01/31 05:27:33;;;;;;;1.30;0.60;;;;;;;4.36;93.13;102114.22;10489323;28;20685;-79
2024/01/31 05:32:36;;;;;;;0.98;0.65;;;;;;;4.66;91.26;102101.84;10451032;28;20047;-79
2024/01/31 05:37:39;;;;;;;4.90;1.00;;;;;;;4.51;92.19;102116.47;10464895;28;20041;-78
2024/01/31 05:42:44;;;;;;;2.78;1.15;;;;;;;4.39;92.93;102115.03;10433917;28;20045;-80
2024/01/31 05:47:48;;;;;;;1.15;1.05;;;;;;;4.05;98.93;102119.50;10445255;28;20101;-79
2024/01/31 05:52:51;;;;;;;1.42;1.02;;;;;;;3.72;100.00;102130.09;10459346;28;20060;-80
2024/01/31 05:57:55;;;;;;;5.75;1.40;;;;;;;4.21;100.00;102127.97;10469816;28;20048;-79
2024/01/31 06:02:58;;;;;;;2.92;1.52;;;;;;;4.16;100.00;102136.06;10478768;28;20036;-80
2024/01/31 06:08:03;;;;;;;5.50;2.35;;;;;;;4.38;100.00;102125.72;10477586;28;20712;-80
2024/01/31 06:13:11;;;;;;;3.97;1.23;;;;;;;4.54;99.40;102131.50;10456242;28;20104;-80
2024/01/31 06:18:15;;;;;;;4.60;1.58;;;;;;;4.42;100.00;102130.06;10449217;28;21115;-80
2024/01/31 06:23:19;;;;;;;5.25;1.80;;;;;;;4.20;100.00;102136.84;10451752;28;20052;-80
2024/01/31 06:28:26;;;;;;;3.08;1.40;;;;;;;4.36;100.00;102136.41;10441051;28;20420;-80
2024/01/31 06:33:34;;;;;;;2.90;1.83;;;;;;;4.04;100.00;102142.59;10436945;28;20120;-80
2024/01/31 06:38:38;;;;;;;5.30;1.60;;;;;;;4.25;100.00;102137.59;10448511;28;20516;-80
2024/01/31 06:43:42;;;;;;;2.72;1.30;;;;;;;4.22;100.00;102140.34;10422244;28;20390;-80
2024/01/31 06:48:45;;;;;;;2.88;1.98;;;;;;;4.35;100.00;102136.44;10461276;28;20053;-79
2024/01/31 06:53:49;;;;;;;4.22;1.92;;;;;;;3.99;100.00;102136.50;10475503;28;20048;-79
2024/01/31 06:58:55;;;;;;;4.22;1.05;;;;;;;3.98;99.25;102137.44;10447689;28;20049;-78
2024/01/31 07:03:58;;;;;;;1.83;0.82;;;;;;;3.66;95.85;102141.75;10459230;28;20053;-80
2024/01/31 07:09:02;;;;;;;1.65;1.55;;;;;;;3.81;93.66;102142.28;10448461;28;20082;-80
2024/01/31 07:14:07;;;;;;;2.58;1.42;;;;;;;4.07;91.54;102146.94;10442810;28;20087;-80
2024/01/31 07:19:10;;;;;;;3.45;1.33;;;;;;;4.39;92.19;102149.63;10416215;28;20049;-80
2024/01/31 07:24:14;;;;;;;7.93;1.83;;;;;;;4.85;90.85;102160.78;10435559;28;20131;-80
2024/01/31 07:29:32;;;;;;;1.08;0.98;;;;;;;4.82;90.92;102168.84;10449224;28;20044;-79
2024/01/31 07:34:35;;;;;;;2.35;0.93;;;;;;;4.80;87.61;102174.25;10466762;28;20060;-78
2024/01/31 07:39:38;;;;;;;0.77;0.77;;;;;;;4.70;87.95;102174.53;10455962;28;20083;-79
2024/01/31 07:44:42;;;;;;;1.20;0.95;;;;;;;4.25;90.55;102188.16;10477102;28;20044;-78
2024/01/31 07:49:46;;;;;;;2.70;0.95;;;;;;;4.24;92.89;102189.94;10450812;28;20044;-78
2024/01/31 07:54:49;;;;;;;3.40;1.00;;;;;;;4.02;96.67;102192.28;10446703;28;20238;-79
2024/01/31 07:59:53;;;;;;;2.28;1.55;;;;;;;4.28;96.60;102191.63;10445005;28;20083;-79
2024/01/31 08:04:56;;;;;;;3.65;1.50;;;;;;;4.31;97.24;102193.34;10439660;28;20049;-79
2024/01/31 08:09:59;;;;;;;4.15;2.22;;;;;;;4.23;98.02;102203.31;10440054;28;20131;-79
2024/01/31 08:15:04;;;;;;;1.67;1.45;;;;;;;4.40;92.26;102185.97;10423972;28;20056;-78
2024/01/31 08:20:09;;;;;;;2.30;1.45;;;;;;;4.54;88.85;102195.38;10428578;28;20104;-79
2024/01/31 08:25:12;;;;;;;4.60;2.28;;;;;;;4.16;92.74;102207.88;10442816;28;20049;-79
2024/01/31 08:30:18;;;;;;;3.38;1.80;;;;;;;4.31;93.59;102209.31;10423265;28;20033;-78
2024/01/31 08:35:21;;;;;;;2.45;1.20;;;;;;;4.37;89.09;102209.13;10393293;28;20123;-78
2024/01/31 08:40:24;;;;;;;2.08;0.57;;;;;;;3.84;88.55;102225.53;10411584;28;20048;-77
2024/01/31 08:45:28;;;;;;;2.58;1.55;;;;;;;3.87;88.57;102216.59;10468151;28;20060;-77
2024/01/31 08:50:31;;;;;;;2.75;1.05;;;;;;;4.16;86.10;102227.38;10491077;28;20075;-78
2024/01/31 08:55:35;;;;;;;1.55;1.00;;;;;;;4.19;86.64;102229.09;10455460;28;20063;-78
2024/01/31 09:00:39;;;;;;;1.40;1.30;;;;;;;4.38;86.63;102234.81;10422950;28;20049;-79
2024/01/31 09:05:42;;;;;;;2.03;1.02;;;;;;;3.65;89.12;102250.78;10438366;28;20052;-78
2024/01/31 09:10:45;;;;;;;2.80;1.20;;;;;;;4.31;86.38;102254.53;10465727;28;20108;-78
2024/01/31 09:15:50;;;;;;;2.75;1.17;;;;;;;4.10;85.13;102267.44;10461124;28;20040;-79
2024/01/31 09:20:52;;;;;;;1.17;1.08;;;;;;;4.28;82.87;102271.44;10434592;28;20180;-77
2024/01/31 09:25:55;;;;;;;2.03;1.02;;;;;;;3.98;83.11;102259.75;10467291;28;20048;-79
2024/01/31 09:31:00;;;;;;;1.80;1.15;;;;;;;4.44;80.86;102239.97;10445325;28;20116;-78
2024/01/31 09:36:03;;;;;;;2.83;1.20;;;;;;;4.30;80.13;102235.00;10413251;28;20132;-79
2024/01/31 09:41:06;;;;;;;1.35;0.90;;;;;;;4.76;78.55;102243.59;10442211;28;20044;-79
2024/01/31 09:46:11;;;;;;;3.35;1.15;;;;;;;4.59;79.16;102244.03;10446084;28;20049;-78
2024/01/31 09:51:14;;;;;;;0.80;0.80;;;;;;;4.71;78.76;102232.19;10424105;28;20109;-79
2024/01/31 09:56:17;;;;;;;0.75;0.73;;;;;;;4.66;78.29;102226.09;10445949;28;20052;-78
2024/01/31 10:01:24;;;;;;;1.80;0.85;;;;;;;5.24;76.64;102222.72;10420332;28;20056;-79
2024/01/31 10:06:34;;;;;;;2.13;1.10;;;;;;;4.85;77.70;102230.00;10452177;28;20063;-79
2024/01/31 10:11:37;;;;;;;4.03;0.85;;;;;;;5.17;77.65;102222.94;10455523;28;20037;-79
2024/01/31 10:16:42;;;;;;;2.03;1.08;;;;;;;5.02;77.31;102219.81;10464090;28;20118;-79
2024/01/31 10:21:45;;;;;;;2.05;1.02;;;;;;;5.42;76.16;102209.75;10452948;28;20119;-80
2024/01/31 10:26:48;;;;;;;2.08;0.85;;;;;;;5.38;73.98;102185.00;10463142;28;20044;-79
2024/01/31 10:31:53;;;;;;;2.03;1.10;;;;;;;5.11;74.57;102172.50;10461730;28;20048;-79
2024/01/31 10:36:57;;;;;;;2.08;0.90;;;;;;;5.57;72.77;102173.72;10441670;28;20092;-81
2024/01/31 10:42:03;;;;;;;4.15;0.85;;;;;;;5.13;73.15;102160.88;10446909;28;20055;-79
2024/01/31 10:47:08;;;;;;;4.97;0.90;;;;;;;4.85;73.97;102150.13;10430968;28;20056;-79
2024/01/31 10:52:15;;;;;;;2.60;1.00;;;;;;;5.49;73.07;102142.00;10423406;28;20048;-79
2024/01/31 10:57:19;;;;;;;3.75;1.63;;;;;;;5.55;72.15;102141.81;10430022;28;20045;-79
2024/01/31 11:02:31;;;;;;;1.13;0.82;;;;;;;5.72;71.62;102152.78;10420762;28;20072;-80
2024/01/31 11:07:44;;;;;;;2.13;0.70;;;;;;;5.57;70.63;102137.31;10408149;28;20041;-80
2024/01/31 11:12:57;;;;;;;2.80;1.10;;;;;;;5.27;72.04;102124.03;10421395;28;20049;-77
2024/01/31 11:18:09;;;;;;;3.75;1.25;;;;;;;4.97;73.74;102108.94;10419335;28;20045;-79
2024/01/31 11:23:15;;;;;;;4.30;1.33;;;;;;;5.31;72.02;102097.28;10411674;28;20049;-79
2024/01/31 11:28:20;;;;;;;5.70;1.90;;;;;;;5.08;74.33;102092.69;10415832;28;20084;-79
2024/01/31 11:33:25;;;;;;;1.42;1.10;;;;;;;4.85;74.99;102115.50;10449301;28;20101;-80
2024/01/31 11:38:28;;;;;;;1.77;1.25;;;;;;;5.05;74.35;102115.81;10443869;28;20121;-79
2024/01/31 11:43:31;;;;;;;4.90;1.30;;;;;;;4.90;74.68;102100.25;10451296;28;20090;-77
2024/01/31 11:48:36;;;;;;;2.28;1.30;;;;;;;5.76;71.57;102102.91;10448082;28;20043;-78
2024/01/31 11:53:39;;;;;;;0.60;0.60;;;;;;;5.45;71.02;102079.91;10425379;28;20049;-77
2024/01/31 11:58:42;;;;;;;1.60;1.10;;;;;;;5.69;70.25;102072.91;10414499;28;20049;-80
2024/01/31 12:03:47;;;;;;;1.83;0.95;;;;;;;5.55;70.10;102067.16;10442442;28;20047;-79
2024/01/31 12:08:51;;;;;;;5.03;1.25;;;;;;;5.17;71.71;102052.41;10427216;28;20060;-79
2024/01/31 12:13:54;;;;;;;1.65;1.55;;;;;;;5.58;69.40;102040.41;10412361;28;20078;-77
2024/01/31 12:19:01;;;;;;;3.38;1.85;;;;;;;5.66;69.49;102037.47;10421275;28;20114;-79
2024/01/31 12:24:05;;;;;;;3.83;2.10;;;;;;;5.59;70.36;102017.25;10415651;28;20059;-80
2024/01/31 12:29:12;;;;;;;2.58;1.95;;;;;;;5.24;71.65;102012.22;10445630;28;20064;-79
2024/01/31 12:34:17;;;;;;;5.10;2.35;;;;;;;6.02;67.08;101992.63;10427026;28;20045;-79
2024/01/31 12:39:20;;;;;;;2.40;1.50;;;;;;;5.86;68.33;101970.97;10456594;28;20045;-77
2024/01/31 12:44:26;;;;;;;2.83;2.15;;;;;;;5.93;67.83;101969.81;10447251;28;20051;-79
2024/01/31 12:49:32;;;;;;;4.55;2.42;;;;;;;6.21;67.53;101958.13;10439287;28;21292;-78
2024/01/31 12:54:35;;;;;;;3.35;3.05;;;;;;;6.03;67.07;101956.13;10456274;28;20081;-77
2024/01/31 12:59:39;;;;;;;6.57;2.88;;;;;;;6.15;66.51;101934.34;10462704;28;20868;-78
2024/01/31 13:04:43;;;;;;;4.88;3.08;;;;;;;6.11;66.14;101928.25;10461199;28;20121;-80
2024/01/31 13:09:46;;;;;;;7.25;3.63;;;;;;;5.99;68.54;101907.38;10446130;28;20119;-78
2024/01/31 13:14:49;;;;;;;7.05;4.90;;;;;;;6.23;67.49;101894.91;10432957;28;20041;-77
2024/01/31 13:19:54;;;;;;;6.70;3.10;;;;;;;6.07;67.41;101897.28;10430901;28;20045;-78
2024/01/31 13:24:57;;;;;;;4.70;3.92;;;;;;;6.64;65.84;101879.03;10419051;28;20077;-79
2024/01/31 13:30:00;;;;;;;5.05;4.47;;;;;;;7.16;64.94;101871.53;10431780;28;20052;-81
2024/01/31 13:35:05;;;;;;;5.47;4.93;;;;;;;6.77;64.28;101876.72;10441458;28;21247;-79
2024/01/31 13:40:10;;;;;;;8.80;5.75;;;;;;;6.78;64.97;101876.66;10441868;28;20049;-79
2024/01/31 13:45:13;;;;;;;6.13;5.47;;;;;;;6.94;64.59;101862.69;10437512;28;20045;-81
2024/01/31 13:50:18;;;;;;;10.60;6.43;;;;;;;6.63;66.34;101854.09;10412093;28;20041;-79
2024/01/31 13:55:21;;;;;;;7.60;6.22;;;;;;;6.57;67.31;101851.69;10412041;28;20049;-81
2024/01/31 14:00:24;;;;;;;7.72;5.50;;;;;;;6.66;67.79;101845.09;10408962;28;20697;-80
2024/01/31 14:05:28;;;;;;;10.57;5.82;;;;;;;6.26;68.72;101838.72;10427223;28;20090;-80
2024/01/31 14:10:31;;;;;;;9.63;7.15;;;;;;;6.45;68.44;101843.34;10430889;28;20128;-80
2024/01/31 14:15:34;;;;;;;10.48;7.70;;;;;;;6.75;68.37;101823.38;10422504;28;20060;-79
2024/01/31 14:20:38;;;;;;;9.63;6.15;;;;;;;6.37;67.97;101830.28;10410932;28;20416;-79
2024/01/31 14:25:41;;;;;;;13.20;8.27;;;;;;;6.57;67.85;101813.44;10421791;28;20118;-80
2024/01/31 14:30:44;;;;;;;10.70;7.75;;;;;;;6.68;67.90;101800.50;10438078;28;20086;-81
2024/01/31 14:35:48;;;;;;;8.90;7.05;;;;;;;6.26;68.75;101785.34;10445213;28;20055;-81
2024/01/31 14:40:52;;;;;;;10.65;7.57;;;;;;;6.08;70.13;101788.75;10415900;28;20056;-77
2024/01/31 14:45:55;;;;;;;9.65;6.57;;;;;;;6.16;70.71;101781.31;10421501;28;21028;-81
2024/01/31 14:51:02;;;;;;;10.07;6.10;;;;;;;6.28;71.93;101794.19;10424699;28;20048;-76
2024/01/31 14:56:05;;;;;;;9.88;6.63;;;;;;;6.33;72.02;101778.81;10435847;28;20052;-80
2024/01/31 15:01:09;;;;;;;10.40;7.18;;;;;;;6.11;72.62;101773.47;10446459;28;20055;-79
2024/01/31 15:06:13;;;;;;;11.18;7.03;;;;;;;5.85;74.84;101763.00;10430420;28;20110;-82
2024/01/31 15:11:17;;;;;;;11.45;6.93;;;;;;;5.61;76.19;101783.47;10440608;28;20078;-79
2024/01/31 15:16:20;;;;;;;13.25;7.30;;;;;;;5.78;76.24;101767.69;10472294;28;20041;-78
2024/01/31 15:21:24;;;;;;;14.13;8.77;;;;;;;6.11;75.74;101751.28;10449135;28;20052;-78
2024/01/31 15:26:27;;;;;;;16.85;9.55;;;;;;;6.15;75.64;101737.75;10477603;28;21049;-78
2024/01/31 15:31:32;;;;;;;14.35;8.23;;;;;;;6.05;76.86;101724.84;10450133;28;20052;-79
2024/01/31 15:36:36;;;;;;;17.38;10.25;;;;;;;5.86;76.79;101720.25;10440078;28;21435;-80
2024/01/31 15:41:39;;;;;;;21.02;12.75;;;;;;;6.11;77.32;101692.56;10415379;28;20049;-79
2024/01/31 15:46:42;;;;;;;20.65;11.73;;;;;;;6.10;77.69;101685.53;10420745;28;20049;-79
2024/01/31 15:51:50;;;;;;;19.55;11.05;;;;;;;6.05;77.99;101693.69;10418898;28;20056;-77
2024/01/31 15:57:00;;;;;;;22.38;13.52;;;;;;;6.24;77.65;101680.47;10450139;28;20520;-77
2024/01/31 16:02:06;;;;;;;23.70;14.40;;;;;;;6.15;79.17;101684.41;10435170;28;20051;-79
2024/01/31 16:07:12;;;;;;;25.05;13.55;;;;;;;5.85;80.38;101696.34;10454678;28;20708;-78
2024/01/31 16:12:20;;;;;;;22.67;10.02;;;;;;;5.66;80.85;101697.06;10445160;28;20048;-79
2024/01/31 16:17:24;;;;;;;25.73;12.52;;;;;;;5.63;81.11;101661.66;10442036;28;20716;-79
2024/01/31 16:22:29;;;;;;;29.60;15.82;;;;;;;6.20;79.56;101659.31;10437439;28;20050;-77
2024/01/31 16:27:33;;;;;;;29.77;14.93;;;;;;;5.90;79.56;101652.53;10434600;28;20060;-78
2024/01/31 16:32:39;;;;;;;23.98;12.60;;;;;;;5.90;79.54;101647.19;10441426;28;20033;-78
2024/01/31 16:37:44;;;;;;;22.42;13.70;;;;;;;5.80;77.46;101666.31;10437029;28;20130;-79
2024/01/31 16:42:47;;;;;;;23.98;13.95;;;;;;;5.97;75.49;101639.81;10437914;28;20672;-78
2024/01/31 16:47:51;;;;;;;25.30;13.63;;;;;;;5.92;75.33;101642.69;10455444;28;20047;-81
2024/01/31 16:52:55;;;;;;;15.65;9.15;;;;;;;5.69;75.15;101651.59;10458988;28;20067;-80
2024/01/31 16:57:59;;;;;;;19.25;11.55;;;;;;;5.92;75.38;101639.13;10464549;28;20047;-79
2024/01/31 17:03:02;;;;;;;25.25;14.27;;;;;;;6.04;75.65;101635.97;10487828;28;20048;-79
2024/01/31 17:08:07;;;;;;;19.38;11.68;;;;;;;5.36;73.76;101640.50;10449891;28;20048;-78
2024/01/31 17:13:14;;;;;;;17.42;11.60;;;;;;;5.83;71.63;101629.72;10453726;28;20151;-78
2024/01/31 17:18:17;;;;;;;21.08;11.95;;;;;;;6.05;70.69;101626.16;10446682;28;20087;-81
2024/01/31 17:23:25;;;;;;;12.27;7.45;;;;;;;5.44;73.53;101614.41;10447669;28;20131;-79
2024/01/31 17:28:28;;;;;;;9.27;6.82;;;;;;;5.44;71.80;101613.56;10453883;28;20149;-79
2024/01/31 17:33:31;;;;;;;15.73;10.98;;;;;;;5.65;71.42;101586.03;10460389;28;20059;-78
2024/01/31 17:38:39;;;;;;;16.95;10.02;;;;;;;5.49;71.40;101563.59;10465431;28;20052;-77
2024/01/31 17:43:42;;;;;;;11.90;8.32;;;;;;;5.33;70.66;101555.34;10457938;28;20057;-77
2024/01/31 17:48:45;;;;;;;12.43;7.47;;;;;;;4.91;71.32;101536.56;10443368;28;20055;-77
2024/01/31 17:53:50;;;;;;;15.52;10.68;;;;;;;5.19;71.50;101525.75;10466160;28;20072;-79
2024/01/31 17:58:53;;;;;;;10.93;7.75;;;;;;;5.06;72.12;101534.22;10490963;28;20048;-77
2024/01/31 18:03:58;;;;;;;14.23;7.45;;;;;;;4.84;73.01;101522.63;10458166;28;20037;-80
2024/01/31 18:09:03;;;;;;;11.60;7.90;;;;;;;4.88;73.02;101540.22;10467372;28;20048;-79
2024/01/31 18:14:12;;;;;;;17.23;10.02;;;;;;;5.75;70.79;101510.97;10459756;28;20055;-78
2024/01/31 18:19:15;;;;;;;9.43;7.15;;;;;;;5.13;74.53;101484.25;10457580;28;20067;-78
2024/01/31 18:24:20;;;;;;;13.52;7.78;;;;;;;5.02;74.98;101487.34;10459972;28;20051;-79
2024/01/31 18:29:23;;;;;;;13.32;9.13;;;;;;;5.17;73.68;101498.28;10468514;28;20041;-80
2024/01/31 18:34:26;;;;;;;10.30;8.50;;;;;;;4.90;73.22;101481.59;10451549;28;20198;-81
2024/01/31 18:39:31;;;;;;;12.55;8.23;;;;;;;5.13;71.15;101462.94;10471532;28;21097;-80
2024/01/31 18:44:34;;;;;;;8.95;5.63;;;;;;;4.92;72.78;101429.16;10444151;28;20058;-81
2024/01/31 18:49:37;;;;;;;7.45;5.75;;;;;;;4.40;74.68;101454.22;10454638;28;20063;-80
2024/01/31 18:54:42;;;;;;;10.93;7.78;;;;;;;4.75;74.13;101454.66;10435275;28;20144;-79
2024/01/31 18:59:45;;;;;;;8.15;7.20;;;;;;;4.78;72.78;101485.63;10445512;28;20044;-79
2024/01/31 19:04:48;;;;;;;8.07;6.57;;;;;;;4.60;72.74;101503.16;10455616;28;20143;-80
2024/01/31 19:10:04;;;;;;;9.23;7.05;;;;;;;4.20;73.35;101475.41;10454050;28;21625;-82
2024/01/31 19:15:09;;;;;;;11.40;6.05;;;;;;;4.63;72.16;101460.44;10464265;28;20057;-83
2024/01/31 19:20:13;;;;;;;9.38;6.95;;;;;;;4.77;71.66;101455.47;10446943;28;20053;-83
2024/01/31 19:25:17;;;;;;;11.02;8.25;;;;;;;4.89;70.90;101448.78;10447633;28;20877;-82
2024/01/31 19:30:20;;;;;;;7.85;6.25;;;;;;;4.84;70.41;101446.28;10457941;28;20060;-80
2024/01/31 19:35:25;;;;;;;7.95;5.55;;;;;;;4.59;71.88;101434.88;10485886;28;20048;-81
2024/01/31 19:40:30;;;;;;;9.77;7.35;;;;;;;4.62;72.10;101424.97;10475977;28;20049;-83
2024/01/31 19:45:33;;;;;;;14.40;10.18;;;;;;;4.82;71.14;101418.00;10468326;28;20049;-79
2024/01/31 19:50:36;;;;;;;12.95;8.68;;;;;;;4.79;71.00;101416.31;10474465;28;20125;-79
2024/01/31 19:55:41;;;;;;;13.10;7.68;;;;;;;4.69;71.76;101383.03;10475240;28;20131;-79
2024/01/31 20:00:45;;;;;;;12.10;8.90;;;;;;;4.91;71.13;101393.66;10466974;28;21154;-81
2024/01/31 20:05:48;;;;;;;13.52;9.23;;;;;;;5.27;69.51;101393.94;10471169;28;20041;-81
2024/01/31 20:10:53;;;;;;;12.48;9.07;;;;;;;5.22;69.51;101395.06;10475997;28;20053;-79
2024/01/31 20:15:56;;;;;;;12.75;8.80;;;;;;;5.13;70.32;101382.13;10459705;28;20049;-79
2024/01/31 20:20:59;;;;;;;11.43;8.63;;;;;;;4.75;71.95;101374.78;10466421;28;20041;-80
2024/01/31 20:26:04;;;;;;;10.52;6.05;;;;;;;4.72;71.90;101388.22;10452580;28;20117;-80
2024/01/31 20:31:09;;;;;;;13.32;8.77;;;;;;;4.58;72.63;101380.81;10458852;28;20049;-80
2024/01/31 20:36:15;;;;;;;7.65;5.32;;;;;;;4.67;72.13;101374.25;10444553;28;20049;-81
2024/01/31 20:41:21;;;;;;;7.68;5.55;;;;;;;4.93;72.03;101359.84;10452523;28;20053;-80
2024/01/31 20:46:24;;;;;;;12.30;8.45;;;;;;;4.95;72.66;101344.66;10457810;28;20055;-81
2024/01/31 20:51:30;;;;;;;17.58;8.38;;;;;;;5.03;71.73;101331.06;10468567;28;20040;-83
2024/01/31 20:56:35;;;;;;;13.48;6.43;;;;;;;4.70;73.28;101312.88;10452225;28;20052;-80
2024/01/31 21:01:41;;;;;;;7.05;5.82;;;;;;;4.81;72.41;101286.69;10464586;28;20052;-81
2024/01/31 21:06:44;;;;;;;11.05;6.53;;;;;;;4.88;72.29;101257.97;10462291;28;20071;-79
2024/01/31 21:11:49;;;;;;;11.95;7.03;;;;;;;4.81;72.67;101267.19;10458134;28;20056;-82
2024/01/31 21:16:54;;;;;;;9.48;6.75;;;;;;;4.96;71.73;101249.66;10448543;28;20085;-80
2024/01/31 21:21:57;;;;;;;9.18;5.95;;;;;;;4.73;73.33;101246.22;10456792;28;21160;-82
2024/01/31 21:27:06;;;;;;;11.85;7.28;;;;;;;4.84;72.39;101246.59;10458807;28;20049;-80
2024/01/31 21:32:14;;;;;;;8.55;5.53;;;;;;;5.02;72.42;101241.47;10475724;28;20052;-80
2024/01/31 21:37:17;;;;;;;10.05;4.30;;;;;;;4.67;73.61;101258.94;10471263;28;20127;-82
2024/01/31 21:42:26;;;;;;;8.73;5.65;;;;;;;5.11;72.07;101258.81;10469939;28;20128;-81
2024/01/31 21:47:29;;;;;;;7.00;5.35;;;;;;;4.82;73.55;101258.25;10469747;28;20111;-81
2024/01/31 21:52:32;;;;;;;8.77;4.72;;;;;;;5.11;71.95;101235.72;10479552;28;20061;-80
2024/01/31 21:57:37;;;;;;;9.35;4.85;;;;;;;5.25;70.88;101233.28;10461376;28;20049;-81
2024/01/31 22:02:40;;;;;;;8.93;5.78;;;;;;;5.21;72.05;101237.03;10473809;28;20048;-81
2024/01/31 22:07:43;;;;;;;10.07;5.13;;;;;;;4.86;73.91;101246.56;10440321;28;20092;-81
2024/01/31 22:12:49;;;;;;;8.48;4.72;;;;;;;5.14;73.07;101237.38;10481747;28;20056;-80
2024/01/31 22:17:53;;;;;;;11.68;5.35;;;;;;;5.06;73.71;101253.69;10479694;28;20080;-82
2024/01/31 22:22:56;;;;;;;10.40;5.55;;;;;;;5.14;73.04;101230.25;10443726;28;20093;-82
2024/01/31 22:28:02;;;;;;;12.68;5.20;;;;;;;5.06;74.28;101213.75;10462451;28;20055;-83
2024/01/31 22:33:05;;;;;;;4.00;3.47;;;;;;;4.91;74.37;101207.28;10448075;28;20025;-81
2024/01/31 22:38:09;;;;;;;10.75;6.90;;;;;;;5.24;74.24;101204.06;10494501;28;20036;-80
2024/01/31 22:43:13;;;;;;;7.30;5.22;;;;;;;5.30;73.71;101222.44;10476150;28;20049;-82
2024/01/31 22:48:17;;;;;;;9.25;5.55;;;;;;;5.20;74.90;101207.78;10470334;28;20033;-81
2024/01/31 22:53:20;;;;;;;10.52;5.63;;;;;;;5.16;75.27;101191.09;10454096;28;20133;-82
2024/01/31 22:58:24;;;;;;;7.13;5.30;;;;;;;5.22;75.80;101196.13;10463347;28;20056;-81
2024/01/31 23:03:28;;;;;;;7.20;5.18;;;;;;;4.72;78.86;101179.75;10478725;28;20071;-81
2024/01/31 23:08:31;;;;;;;7.25;5.00;;;;;;;5.12;77.21;101193.97;10458651;28;20056;-80
2024/01/31 23:13:36;;;;;;;8.68;5.05;;;;;;;5.30;77.03;101165.63;10443847;28;20111;-81
2024/01/31 23:18:39;;;;;;;10.05;5.55;;;;;;;5.20;78.08;101171.38;10473785;28;20079;-80
2024/01/31 23:23:43;;;;;;;8.35;5.13;;;;;;;5.10;79.45;101171.84;10492418;28;20052;-81
2024/01/31 23:28:48;;;;;;;8.52;5.70;;;;;;;4.98;80.96;101143.97;10478297;28;20071;-81